Time;durP1;ratioP1;P1;durP2;ratioP2;P2;SDS_P1;SDS_P2;PMS_P1;PMS_P2;Temp;Humidity;BMP_temperature;BMP_pressure;BME280_temperature;BME280_humidity;BME280_pressure;Samples;Min_cycle;Max_cycle;Signal;HPM_P1;HPM_P2
2023/04/24 00:01:47;;;;;;;6.50;4.83;;;;;;;;;;5045225;28;20676;-89
2023/04/24 00:04:16;;;;;;;5.20;4.60;;;;;;;;;;5066905;28;20213;-88
2023/04/24 00:06:44;;;;;;;6.87;5.97;;;;;;;;;;5063773;28;20293;-88
2023/04/24 00:09:11;;;;;;;7.13;6.00;;;;;;;;;;5071575;28;20216;-89
2023/04/24 00:11:38;;;;;;;6.03;4.93;;;;;;;;;;5058959;28;20251;-88
2023/04/24 00:14:05;;;;;;;6.80;4.87;;;;;;;;;;5070890;28;20213;-89
2023/04/24 00:16:32;;;;;;;4.40;4.00;;;;;;;;;;5058569;28;20645;-89
2023/04/24 00:19:00;;;;;;;5.90;4.57;;;;;;;;;;5056105;28;20591;-88
2023/04/24 00:21:28;;;;;;;3.43;2.73;;;;;;;;;;5046746;28;20204;-89
2023/04/24 00:23:56;;;;;;;4.13;3.83;;;;;;;;;;5054024;28;20213;-91
2023/04/24 00:26:23;;;;;;;4.97;3.13;;;;;;;;;;5056781;28;20252;-88
2023/04/24 00:28:51;;;;;;;3.97;3.57;;;;;;;;;;5045383;28;20722;-88
2023/04/24 00:31:17;;;;;;;4.53;4.03;;;;;;;;;;5058575;28;20580;-89
2023/04/24 00:33:44;;;;;;;5.43;4.17;;;;;;;;;;5037602;28;20237;-88
2023/04/24 00:36:12;;;;;;;4.77;3.30;;;;;;;;;;5064176;28;20205;-88
2023/04/24 00:38:39;;;;;;;5.43;3.47;;;;;;;;;;5057784;28;20213;-88
2023/04/24 00:41:08;;;;;;;3.67;3.37;;;;;;;;;;5055472;28;20297;-88
2023/04/24 00:43:36;;;;;;;4.73;3.13;;;;;;;;;;5048371;28;20672;-88
2023/04/24 00:46:03;;;;;;;5.00;3.10;;;;;;;;;;5057038;28;20229;-88
2023/04/24 00:48:30;;;;;;;4.67;3.47;;;;;;;;;;5063060;28;20548;-88
2023/04/24 00:50:58;;;;;;;4.77;3.80;;;;;;;;;;5054077;28;20209;-88
2023/04/24 00:53:25;;;;;;;7.30;3.67;;;;;;;;;;5061163;28;20221;-88
2023/04/24 00:55:52;;;;;;;4.33;3.10;;;;;;;;;;5065109;28;20259;-88
2023/04/24 00:58:21;;;;;;;4.43;3.47;;;;;;;;;;5024715;28;20206;-88
2023/04/24 01:00:50;;;;;;;4.50;3.63;;;;;;;;;;5037027;28;20216;-88
2023/04/24 01:03:18;;;;;;;7.03;3.10;;;;;;;;;;5059558;28;20206;-87
2023/04/24 01:05:45;;;;;;;7.20;3.57;;;;;;;;;;5053252;28;20249;-88
2023/04/24 01:08:12;;;;;;;16.27;14.43;;;;;;;;;;5043565;28;20203;-88
2023/04/24 01:10:40;;;;;;;87.70;74.27;;;;;;;;;;5026414;28;20259;-88
2023/04/24 01:13:08;;;;;;;183.87;129.17;;;;;;;;;;5063937;28;20216;-88
2023/04/24 01:15:37;;;;;;;141.27;102.90;;;;;;;;;;5073277;28;20571;-88
2023/04/24 01:18:05;;;;;;;54.10;41.77;;;;;;;;;;5061325;28;20214;-88
2023/04/24 01:20:32;;;;;;;46.23;36.77;;;;;;;;;;5068034;28;20209;-88
2023/04/24 01:23:01;;;;;;;9.07;8.17;;;;;;;;;;5065520;28;20251;-89
2023/04/24 01:25:29;;;;;;;6.47;4.57;;;;;;;;;;5048062;28;20238;-88
2023/04/24 01:27:56;;;;;;;4.40;4.03;;;;;;;;;;5060201;28;20243;-88
2023/04/24 01:30:24;;;;;;;42.70;32.37;;;;;;;;;;5068600;28;20746;-88
2023/04/24 01:32:51;;;;;;;13.90;11.67;;;;;;;;;;5054481;28;20761;-88
2023/04/24 01:35:18;;;;;;;10.77;6.53;;;;;;;;;;5048472;28;20274;-88
2023/04/24 01:37:45;;;;;;;6.57;5.37;;;;;;;;;;5074352;28;20216;-89
2023/04/24 01:40:14;;;;;;;8.53;4.97;;;;;;;;;;5068010;28;20189;-88
2023/04/24 01:42:42;;;;;;;5.40;4.90;;;;;;;;;;5051150;28;20274;-88
2023/04/24 01:45:12;;;;;;;6.63;4.77;;;;;;;;;;5074605;28;20215;-88
2023/04/24 01:47:39;;;;;;;4.53;4.07;;;;;;;;;;5059824;28;20213;-88
2023/04/24 01:50:07;;;;;;;8.63;4.23;;;;;;;;;;5065301;28;20271;-88
2023/04/24 01:52:35;;;;;;;5.30;3.87;;;;;;;;;;5067506;28;20274;-88
2023/04/24 01:55:03;;;;;;;4.93;4.20;;;;;;;;;;5063399;28;20247;-88
2023/04/24 01:57:32;;;;;;;4.13;3.73;;;;;;;;;;5073008;28;20201;-88
2023/04/24 01:59:59;;;;;;;5.43;4.53;;;;;;;;;;5074625;28;20204;-88
2023/04/24 02:02:27;;;;;;;7.13;4.53;;;;;;;;;;5056508;28;20213;-88
2023/04/24 02:04:54;;;;;;;6.80;5.30;;;;;;;;;;5053854;28;20214;-88
2023/04/24 02:07:21;;;;;;;7.40;6.70;;;;;;;;;;5066085;28;20230;-88
2023/04/24 02:09:48;;;;;;;6.33;5.73;;;;;;;;;;5053139;28;20210;-88
2023/04/24 02:12:15;;;;;;;6.17;5.63;;;;;;;;;;5056460;28;20702;-89
2023/04/24 02:14:44;;;;;;;5.43;4.93;;;;;;;;;;5062051;28;20225;-88
2023/04/24 02:17:13;;;;;;;5.77;4.87;;;;;;;;;;5070791;28;20209;-88
2023/04/24 02:19:40;;;;;;;6.33;5.07;;;;;;;;;;5063123;28;20206;-88
2023/04/24 02:22:07;;;;;;;5.50;5.00;;;;;;;;;;5067297;28;20237;-89
2023/04/24 02:24:35;;;;;;;6.83;4.90;;;;;;;;;;5053567;28;20271;-89
2023/04/24 02:27:02;;;;;;;4.87;4.07;;;;;;;;;;5044396;28;20264;-88
2023/04/24 02:29:30;;;;;;;6.97;4.67;;;;;;;;;;5056282;28;20217;-88
2023/04/24 02:31:58;;;;;;;5.90;4.43;;;;;;;;;;5043088;28;20607;-89
2023/04/24 02:34:26;;;;;;;5.63;4.77;;;;;;;;;;5060173;28;20217;-88
2023/04/24 02:36:53;;;;;;;8.63;6.07;;;;;;;;;;5066827;28;20213;-88
2023/04/24 02:39:21;;;;;;;13.17;5.83;;;;;;;;;;5064822;28;20212;-88
2023/04/24 02:41:48;;;;;;;7.80;6.33;;;;;;;;;;5044942;28;20208;-88
2023/04/24 02:44:17;;;;;;;8.50;6.43;;;;;;;;;;5071943;28;20258;-88
2023/04/24 02:46:44;;;;;;;5.27;4.77;;;;;;;;;;5058987;28;20331;-88
2023/04/24 02:49:13;;;;;;;6.70;4.93;;;;;;;;;;5059079;28;20206;-88
2023/04/24 02:51:41;;;;;;;6.53;5.27;;;;;;;;;;5043869;28;20243;-88
2023/04/24 02:54:09;;;;;;;8.60;5.80;;;;;;;;;;5059512;28;20308;-88
2023/04/24 02:56:36;;;;;;;8.37;5.63;;;;;;;;;;5073142;28;20243;-88
2023/04/24 02:59:03;;;;;;;7.40;5.33;;;;;;;;;;5072182;28;20212;-87
2023/04/24 03:01:30;;;;;;;7.07;5.43;;;;;;;;;;5063296;28;20209;-88
2023/04/24 03:03:57;;;;;;;5.50;5.00;;;;;;;;;;5054376;28;20264;-88
2023/04/24 03:06:26;;;;;;;5.87;5.27;;;;;;;;;;5062206;28;20229;-88
2023/04/24 03:08:54;;;;;;;6.43;4.83;;;;;;;;;;5056160;28;20202;-88
2023/04/24 03:11:21;;;;;;;11.00;5.57;;;;;;;;;;5047265;28;20201;-88
2023/04/24 03:13:48;;;;;;;5.77;5.17;;;;;;;;;;5061996;28;20233;-88
2023/04/24 03:16:15;;;;;;;7.77;4.97;;;;;;;;;;5071146;28;20703;-88
2023/04/24 03:18:43;;;;;;;57.23;22.60;;;;;;;;;;5056977;28;20213;-87
2023/04/24 03:21:10;;;;;;;29.00;14.90;;;;;;;;;;5060211;28;20212;-88
2023/04/24 03:23:39;;;;;;;58.70;25.43;;;;;;;;;;5071318;28;20201;-88
2023/04/24 03:26:07;;;;;;;35.17;17.17;;;;;;;;;;5062668;28;20233;-88
2023/04/24 03:28:34;;;;;;;17.80;11.83;;;;;;;;;;5066210;28;20205;-88
2023/04/24 03:31:00;;;;;;;11.80;9.90;;;;;;;;;;5054957;28;20251;-87
2023/04/24 03:33:29;;;;;;;12.93;9.93;;;;;;;;;;5072477;28;20209;-87
2023/04/24 03:35:57;;;;;;;11.63;8.40;;;;;;;;;;5055072;28;20205;-88
2023/04/24 03:38:25;;;;;;;93.90;36.00;;;;;;;;;;5038539;28;20271;-88
2023/04/24 03:40:53;;;;;;;31.20;15.50;;;;;;;;;;5052071;28;20201;-88
2023/04/24 03:43:20;;;;;;;20.07;11.27;;;;;;;;;;5052471;28;20209;-87
2023/04/24 03:45:48;;;;;;;13.33;8.07;;;;;;;;;;5051442;28;20259;-88
2023/04/24 03:48:16;;;;;;;153.57;58.43;;;;;;;;;;5038950;28;20198;-87
2023/04/24 03:50:43;;;;;;;62.90;38.47;;;;;;;;;;5064103;28;20255;-92
2023/04/24 03:53:09;;;;;;;130.87;54.17;;;;;;;;;;5070501;28;20209;-90
2023/04/24 03:55:39;;;;;;;29.67;17.10;;;;;;;;;;5058521;28;20266;-88
2023/04/24 03:58:08;;;;;;;13.60;11.13;;;;;;;;;;5082920;28;20207;-89
2023/04/24 04:00:37;;;;;;;12.33;9.50;;;;;;;;;;5072045;28;20205;-89
2023/04/24 04:03:04;;;;;;;12.77;8.93;;;;;;;;;;5072642;28;20205;-89
2023/04/24 04:05:31;;;;;;;10.20;8.27;;;;;;;;;;5070931;28;20212;-89
2023/04/24 04:07:58;;;;;;;8.60;7.73;;;;;;;;;;5058461;28;20234;-83
2023/04/24 04:10:25;;;;;;;33.53;16.77;;;;;;;;;;5063315;28;20611;-90
2023/04/24 04:12:52;;;;;;;21.87;14.60;;;;;;;;;;5060911;28;20209;-86
2023/04/24 04:15:21;;;;;;;16.43;12.57;;;;;;;;;;5066892;28;20205;-85
2023/04/24 04:17:47;;;;;;;18.63;13.50;;;;;;;;;;5052228;28;20194;-86
2023/04/24 04:20:14;;;;;;;20.07;13.73;;;;;;;;;;5064632;28;20205;-88
2023/04/24 04:22:41;;;;;;;15.20;11.20;;;;;;;;;;5061378;28;20649;-89
2023/04/24 04:25:09;;;;;;;19.63;12.10;;;;;;;;;;5057166;28;20232;-91
2023/04/24 04:27:36;;;;;;;13.47;10.23;;;;;;;;;;5060809;28;20233;-90
2023/04/24 04:30:04;;;;;;;11.07;9.97;;;;;;;;;;5051317;28;20206;-91
2023/04/24 04:32:34;;;;;;;10.20;9.10;;;;;;;;;;5062892;28;20200;-91
2023/04/24 04:35:03;;;;;;;12.07;10.00;;;;;;;;;;5054886;28;20241;-90
2023/04/24 04:37:29;;;;;;;12.50;8.63;;;;;;;;;;5059688;28;20205;-91
2023/04/24 04:39:57;;;;;;;8.30;7.50;;;;;;;;;;5047400;28;20212;-91
2023/04/24 04:42:25;;;;;;;11.63;9.43;;;;;;;;;;5062315;28;20202;-91
2023/04/24 04:44:52;;;;;;;13.17;9.70;;;;;;;;;;5032155;28;20217;-91
2023/04/24 04:47:22;;;;;;;9.63;7.90;;;;;;;;;;5075717;28;20776;-91
2023/04/24 04:49:51;;;;;;;9.33;7.60;;;;;;;;;;5069879;28;20202;-90
2023/04/24 04:52:18;;;;;;;7.77;7.00;;;;;;;;;;5068673;28;20208;-91
2023/04/24 04:54:46;;;;;;;11.67;8.37;;;;;;;;;;5063035;28;20274;-91
2023/04/24 04:57:13;;;;;;;10.60;7.10;;;;;;;;;;5076334;28;20209;-92
2023/04/24 04:59:40;;;;;;;9.53;7.80;;;;;;;;;;5075489;28;20197;-93
2023/04/24 05:02:07;;;;;;;10.90;9.50;;;;;;;;;;5075875;28;20675;-91
2023/04/24 05:04:34;;;;;;;8.80;7.90;;;;;;;;;;5055943;28;20268;-91
2023/04/24 05:07:02;;;;;;;9.50;7.37;;;;;;;;;;5069003;28;20282;-90
2023/04/24 05:09:29;;;;;;;8.47;6.33;;;;;;;;;;5063353;28;20296;-90
2023/04/24 05:11:56;;;;;;;10.50;8.47;;;;;;;;;;5074171;28;20590;-90
2023/04/24 05:14:23;;;;;;;13.17;9.50;;;;;;;;;;5063427;28;20204;-90
2023/04/24 05:16:50;;;;;;;13.40;9.90;;;;;;;;;;5061978;28;20220;-91
2023/04/24 05:19:17;;;;;;;17.97;11.23;;;;;;;;;;5075317;28;20274;-90
2023/04/24 05:21:44;;;;;;;13.67;10.60;;;;;;;;;;5074130;28;20278;-90
2023/04/24 05:24:12;;;;;;;11.47;9.40;;;;;;;;;;5063687;28;20255;-92
2023/04/24 05:26:39;;;;;;;10.83;8.67;;;;;;;;;;5073393;28;20236;-90
2023/04/24 05:29:06;;;;;;;15.50;10.20;;;;;;;;;;5064400;28;20212;-90
2023/04/24 05:31:33;;;;;;;10.97;9.93;;;;;;;;;;5059928;28;20206;-90
2023/04/24 05:33:59;;;;;;;10.70;9.27;;;;;;;;;;5046059;28;20640;-90
2023/04/24 05:36:26;;;;;;;7.60;6.90;;;;;;;;;;5064665;28;20210;-90
2023/04/24 05:38:53;;;;;;;9.63;6.40;;;;;;;;;;5064546;28;20232;-90
2023/04/24 05:41:22;;;;;;;7.30;6.57;;;;;;;;;;5058757;28;20267;-90
2023/04/24 05:43:49;;;;;;;8.00;5.83;;;;;;;;;;5064901;28;20209;-90
2023/04/24 05:46:15;;;;;;;7.37;6.67;;;;;;;;;;5058164;28;20213;-90
2023/04/24 05:48:42;;;;;;;11.50;7.43;;;;;;;;;;5065039;28;20657;-91
2023/04/24 05:51:10;;;;;;;7.17;6.37;;;;;;;;;;5073710;28;20270;-90
2023/04/24 05:53:37;;;;;;;5.50;5.00;;;;;;;;;;5064507;28;20214;-90
2023/04/24 05:56:04;;;;;;;6.13;5.17;;;;;;;;;;5068211;28;20198;-89
2023/04/24 05:58:32;;;;;;;8.37;5.10;;;;;;;;;;5065583;28;20625;-90
2023/04/24 06:01:01;;;;;;;5.37;4.63;;;;;;;;;;5056902;28;20626;-90
2023/04/24 06:03:28;;;;;;;5.83;4.43;;;;;;;;;;5066587;28;20219;-89
2023/04/24 06:05:55;;;;;;;7.67;4.43;;;;;;;;;;5069477;28;20213;-89
2023/04/24 06:08:22;;;;;;;5.07;4.17;;;;;;;;;;5054537;28;20283;-90
2023/04/24 06:10:48;;;;;;;8.83;4.70;;;;;;;;;;5060020;28;20213;-89
2023/04/24 06:13:15;;;;;;;5.70;4.80;;;;;;;;;;5062684;28;20205;-89
2023/04/24 06:15:44;;;;;;;7.30;4.10;;;;;;;;;;5060329;28;20205;-90
2023/04/24 06:18:12;;;;;;;6.37;3.83;;;;;;;;;;5074480;28;20258;-89
2023/04/24 06:20:39;;;;;;;6.37;4.10;;;;;;;;;;5074243;28;20213;-89
2023/04/24 06:23:06;;;;;;;5.90;5.23;;;;;;;;;;5060870;28;20218;-89
2023/04/24 06:25:33;;;;;;;4.27;3.43;;;;;;;;;;5053762;28;20704;-90
2023/04/24 06:27:59;;;;;;;6.07;3.83;;;;;;;;;;5067459;28;20228;-89
2023/04/24 06:30:27;;;;;;;5.77;4.00;;;;;;;;;;5054201;28;20551;-89
2023/04/24 06:32:55;;;;;;;4.27;3.73;;;;;;;;;;5067820;28;20274;-89
2023/04/24 06:35:22;;;;;;;4.87;4.10;;;;;;;;;;5061826;28;20217;-89
2023/04/24 06:37:49;;;;;;;4.13;3.77;;;;;;;;;;5073889;28;20204;-87
2023/04/24 06:40:18;;;;;;;4.07;3.60;;;;;;;;;;5073858;28;20301;-89
2023/04/24 06:42:45;;;;;;;4.20;3.53;;;;;;;;;;5073678;28;20200;-89
2023/04/24 06:45:12;;;;;;;4.23;3.43;;;;;;;;;;5074212;28;20200;-93
2023/04/24 06:47:38;;;;;;;5.67;3.93;;;;;;;;;;5073364;28;20298;-90
2023/04/24 06:50:08;;;;;;;8.97;3.97;;;;;;;;;;5065456;28;20643;-89
2023/04/24 06:52:35;;;;;;;4.53;3.17;;;;;;;;;;5055881;28;20209;-89
2023/04/24 06:55:06;;;;;;;6.30;3.33;;;;;;;;;;5064956;28;20217;-89
2023/04/24 06:57:33;;;;;;;5.47;3.70;;;;;;;;;;5056703;28;20221;-89
2023/04/24 06:59:59;;;;;;;9.37;5.03;;;;;;;;;;5064216;28;20264;-90
2023/04/24 07:02:27;;;;;;;8.43;3.77;;;;;;;;;;5056629;28;20589;-89
2023/04/24 07:04:53;;;;;;;4.17;3.60;;;;;;;;;;5073306;28;20660;-89
2023/04/24 07:07:23;;;;;;;4.37;3.97;;;;;;;;;;5056054;28;20305;-89
2023/04/24 07:09:50;;;;;;;4.47;3.97;;;;;;;;;;5063920;28;20232;-89
2023/04/24 07:12:20;;;;;;;4.97;3.23;;;;;;;;;;5073179;28;20223;-89
2023/04/24 07:14:47;;;;;;;7.00;4.70;;;;;;;;;;5061946;28;20225;-89
2023/04/24 07:17:14;;;;;;;6.30;3.90;;;;;;;;;;5057766;28;20216;-89
2023/04/24 07:19:41;;;;;;;8.03;3.57;;;;;;;;;;5061625;28;20212;-89
2023/04/24 07:22:16;;;;;;;4.03;3.57;;;;;;;;;;5057817;28;20212;-89
2023/04/24 07:24:44;;;;;;;9.63;4.37;;;;;;;;;;5060133;28;20225;-89
2023/04/24 07:27:11;;;;;;;6.47;3.80;;;;;;;;;;5072797;28;20208;-88
2023/04/24 07:29:38;;;;;;;6.53;4.53;;;;;;;;;;5059923;28;20638;-89
2023/04/24 07:32:07;;;;;;;4.67;3.60;;;;;;;;;;5072672;28;20213;-88
2023/04/24 07:34:34;;;;;;;6.10;4.17;;;;;;;;;;5072228;28;20209;-89
2023/04/24 07:37:01;;;;;;;3.87;3.43;;;;;;;;;;5065953;28;20294;-89
2023/04/24 07:39:29;;;;;;;3.87;3.47;;;;;;;;;;5066502;28;20217;-88
2023/04/24 07:41:58;;;;;;;6.33;4.07;;;;;;;;;;5064977;28;20734;-89
2023/04/24 07:44:25;;;;;;;4.33;3.57;;;;;;;;;;5039124;28;20209;-89
2023/04/24 07:46:52;;;;;;;4.17;3.87;;;;;;;;;;5061300;28;20215;-89
2023/04/24 07:49:19;;;;;;;4.67;4.13;;;;;;;;;;5072114;28;20330;-89
2023/04/24 07:51:46;;;;;;;5.70;3.20;;;;;;;;;;5071963;28;20205;-89
2023/04/24 07:54:13;;;;;;;6.97;4.10;;;;;;;;;;5057334;28;20205;-89
2023/04/24 07:56:40;;;;;;;4.67;3.60;;;;;;;;;;5061012;28;20209;-88
2023/04/24 07:59:09;;;;;;;3.70;3.33;;;;;;;;;;5058277;28;20206;-88
2023/04/24 08:01:36;;;;;;;3.80;3.50;;;;;;;;;;5072457;28;20201;-88
2023/04/24 08:04:03;;;;;;;4.83;3.50;;;;;;;;;;5058815;28;20760;-88
2023/04/24 08:06:31;;;;;;;4.80;3.50;;;;;;;;;;5071971;28;20209;-88
2023/04/24 08:08:58;;;;;;;5.03;3.97;;;;;;;;;;5071857;28;20292;-88
2023/04/24 08:11:25;;;;;;;3.77;3.43;;;;;;;;;;5071720;28;20219;-88
2023/04/24 08:13:54;;;;;;;4.33;3.90;;;;;;;;;;5067848;28;20636;-89
2023/04/24 08:16:23;;;;;;;7.07;4.17;;;;;;;;;;5041557;28;20290;-88
2023/04/24 08:18:50;;;;;;;5.07;3.87;;;;;;;;;;5041704;28;20667;-88
2023/04/24 08:21:18;;;;;;;3.73;3.40;;;;;;;;;;5060986;28;20641;-88
2023/04/24 08:23:45;;;;;;;4.67;3.73;;;;;;;;;;5069974;28;20658;-88
2023/04/24 08:26:12;;;;;;;4.93;4.03;;;;;;;;;;5060227;28;20584;-87
2023/04/24 08:28:39;;;;;;;3.90;3.60;;;;;;;;;;5064666;28;20268;-88
2023/04/24 08:31:06;;;;;;;8.00;3.70;;;;;;;;;;5064052;28;20220;-88
2023/04/24 08:33:35;;;;;;;4.33;3.90;;;;;;;;;;5066380;28;20220;-88
2023/04/24 08:36:02;;;;;;;5.13;3.63;;;;;;;;;;5051308;28;20266;-89
2023/04/24 08:38:29;;;;;;;5.40;3.77;;;;;;;;;;5064513;28;20208;-88
2023/04/24 08:40:59;;;;;;;5.27;3.30;;;;;;;;;;5064480;28;20231;-88
2023/04/24 08:43:26;;;;;;;8.93;4.80;;;;;;;;;;5038086;28;20271;-88
2023/04/24 08:45:53;;;;;;;6.07;4.20;;;;;;;;;;5064781;28;20262;-88
2023/04/24 08:48:20;;;;;;;3.97;3.67;;;;;;;;;;5064159;28;20636;-88
2023/04/24 08:50:49;;;;;;;7.30;4.00;;;;;;;;;;5065625;28;20322;-88
2023/04/24 08:53:16;;;;;;;7.90;4.50;;;;;;;;;;5071687;28;20212;-88
2023/04/24 08:55:45;;;;;;;6.43;3.47;;;;;;;;;;5057920;28;20329;-88
2023/04/24 08:58:12;;;;;;;4.40;4.00;;;;;;;;;;5063528;28;20218;-88
2023/04/24 09:00:43;;;;;;;9.17;4.13;;;;;;;;;;5065980;28;20209;-88
2023/04/24 09:03:11;;;;;;;5.67;4.63;;;;;;;;;;5071302;28;20210;-88
2023/04/24 09:05:38;;;;;;;7.03;3.93;;;;;;;;;;5057879;28;20215;-88
2023/04/24 09:08:06;;;;;;;3.73;3.30;;;;;;;;;;5062492;28;20230;-88
2023/04/24 09:10:35;;;;;;;7.33;3.40;;;;;;;;;;5054372;28;21075;-88
2023/04/24 09:13:02;;;;;;;8.13;5.00;;;;;;;;;;5071360;28;20208;-88
2023/04/24 09:15:29;;;;;;;5.30;4.17;;;;;;;;;;5071074;28;20546;-88
2023/04/24 09:17:56;;;;;;;7.50;3.70;;;;;;;;;;5071242;28;20258;-88
2023/04/24 09:20:23;;;;;;;4.67;3.93;;;;;;;;;;5067560;28;20258;-88
2023/04/24 09:22:55;;;;;;;5.20;4.43;;;;;;;;;;5051790;28;20204;-88
2023/04/24 09:25:23;;;;;;;8.53;4.30;;;;;;;;;;5070877;28;20264;-88
2023/04/24 09:27:50;;;;;;;5.13;3.53;;;;;;;;;;5075052;28;20692;-88
2023/04/24 09:30:22;;;;;;;5.03;3.97;;;;;;;;;;5050726;28;20207;-88
2023/04/24 09:32:49;;;;;;;6.17;4.53;;;;;;;;;;5048167;28;20205;-88
2023/04/24 09:35:16;;;;;;;5.40;4.17;;;;;;;;;;5074236;28;20211;-87
2023/04/24 09:37:45;;;;;;;8.07;4.40;;;;;;;;;;5074611;28;20673;-88
2023/04/24 09:40:13;;;;;;;4.33;3.97;;;;;;;;;;5054781;28;20220;-88
2023/04/24 09:42:44;;;;;;;3.77;3.43;;;;;;;;;;5055653;28;20214;-88
2023/04/24 09:45:12;;;;;;;5.67;4.27;;;;;;;;;;5074860;28;20304;-88
2023/04/24 09:47:39;;;;;;;7.83;4.30;;;;;;;;;;5061289;28;20292;-88
2023/04/24 09:50:14;;;;;;;4.53;4.13;;;;;;;;;;5066245;28;20267;-88
2023/04/24 09:52:42;;;;;;;4.37;3.87;;;;;;;;;;5054386;28;20695;-88
2023/04/24 09:55:13;;;;;;;6.40;3.70;;;;;;;;;;5064264;28;20210;-88
2023/04/24 09:57:52;;;;;;;4.70;4.30;;;;;;;;;;5057578;28;20300;-88
2023/04/24 10:00:22;;;;;;;6.13;4.73;;;;;;;;;;5066826;28;20207;-88
2023/04/24 10:02:55;;;;;;;4.83;4.23;;;;;;;;;;5067442;28;20223;-88
2023/04/24 10:05:24;;;;;;;6.37;4.10;;;;;;;;;;5067543;28;20213;-88
2023/04/24 10:07:51;;;;;;;9.90;4.23;;;;;;;;;;5062146;28;20212;-88
2023/04/24 10:10:18;;;;;;;4.93;4.53;;;;;;;;;;5060520;28;20229;-88
2023/04/24 10:12:45;;;;;;;6.33;4.30;;;;;;;;;;5074174;28;20226;-89
2023/04/24 10:15:14;;;;;;;4.20;3.90;;;;;;;;;;5060338;28;20209;-88
2023/04/24 10:17:41;;;;;;;4.47;4.07;;;;;;;;;;5064855;28;20558;-88
2023/04/24 10:20:09;;;;;;;4.23;3.93;;;;;;;;;;5067027;28;20214;-88
2023/04/24 10:22:36;;;;;;;5.33;4.03;;;;;;;;;;5063652;28;20217;-88
2023/04/24 10:25:06;;;;;;;5.33;4.13;;;;;;;;;;5057249;28;20227;-87
2023/04/24 10:27:33;;;;;;;5.90;4.63;;;;;;;;;;5053395;28;20202;-88
2023/04/24 10:30:01;;;;;;;6.13;3.70;;;;;;;;;;5071007;28;20289;-88
2023/04/24 10:32:29;;;;;;;5.27;4.27;;;;;;;;;;5073723;28;20203;-88
2023/04/24 10:34:56;;;;;;;4.97;3.47;;;;;;;;;;5055853;28;20227;-88
2023/04/24 10:37:24;;;;;;;6.70;4.67;;;;;;;;;;5064271;28;20201;-88
2023/04/24 10:39:54;;;;;;;4.60;4.20;;;;;;;;;;5068473;28;20649;-88
2023/04/24 10:42:21;;;;;;;6.77;4.93;;;;;;;;;;5065266;28;20208;-88
2023/04/24 10:44:49;;;;;;;5.53;4.87;;;;;;;;;;5060218;28;20629;-88
2023/04/24 10:47:16;;;;;;;4.40;4.00;;;;;;;;;;5061667;28;20213;-88
2023/04/24 10:49:45;;;;;;;7.37;4.97;;;;;;;;;;5058310;28;20232;-88
2023/04/24 10:52:12;;;;;;;7.80;5.43;;;;;;;;;;5072864;28;20212;-88
2023/04/24 10:54:44;;;;;;;7.73;4.43;;;;;;;;;;5059946;28;20726;-88
2023/04/24 10:57:30;;;;;;;5.70;4.80;;;;;;;;;;5060647;28;20210;-88
2023/04/24 11:00:17;;;;;;;5.97;5.00;;;;;;;;;;5044453;28;20276;-88
2023/04/24 11:02:50;;;;;;;5.97;5.40;;;;;;;;;;5051817;28;20221;-88
2023/04/24 11:05:18;;;;;;;6.20;4.50;;;;;;;;;;5066205;28;20206;-88
2023/04/24 11:08:12;;;;;;;9.00;4.90;;;;;;;;;;5066644;28;20264;-88
2023/04/24 11:10:41;;;;;;;4.60;4.20;;;;;;;;;;5030087;28;20217;-88
2023/04/24 11:13:08;;;;;;;5.17;4.67;;;;;;;;;;5073173;28;20250;-88
2023/04/24 11:15:35;;;;;;;5.00;4.43;;;;;;;;;;5072986;28;20287;-88
2023/04/24 11:18:01;;;;;;;5.33;3.83;;;;;;;;;;5072807;28;20212;-88
2023/04/24 11:20:30;;;;;;;4.20;3.57;;;;;;;;;;5058811;28;20222;-88
2023/04/24 11:23:04;;;;;;;4.93;4.07;;;;;;;;;;5072705;28;20212;-89
2023/04/24 11:25:32;;;;;;;6.67;4.37;;;;;;;;;;5053773;28;20239;-88
2023/04/24 11:28:05;;;;;;;7.67;5.40;;;;;;;;;;5052672;28;20642;-89
2023/04/24 11:30:33;;;;;;;9.57;7.13;;;;;;;;;;5039963;28;20307;-88
2023/04/24 11:33:05;;;;;;;6.17;5.67;;;;;;;;;;5053393;28;20213;-89
2023/04/24 11:35:40;;;;;;;7.07;6.23;;;;;;;;;;5064161;28;20627;-88
2023/04/24 11:38:08;;;;;;;5.63;4.97;;;;;;;;;;5052802;28;20206;-88
2023/04/24 11:40:35;;;;;;;8.20;5.27;;;;;;;;;;5062572;28;20208;-89
2023/04/24 11:43:02;;;;;;;5.90;5.40;;;;;;;;;;5069392;28;21003;-88
2023/04/24 11:45:29;;;;;;;5.93;5.27;;;;;;;;;;5052810;28;20212;-89
2023/04/24 11:47:56;;;;;;;7.23;5.30;;;;;;;;;;5051462;28;20236;-89
2023/04/24 11:50:25;;;;;;;5.37;4.83;;;;;;;;;;5062930;28;20235;-89
2023/04/24 11:52:55;;;;;;;7.33;6.17;;;;;;;;;;5072623;28;20246;-88
2023/04/24 11:55:27;;;;;;;5.63;4.57;;;;;;;;;;5060919;28;20559;-89
2023/04/24 11:57:56;;;;;;;5.47;4.53;;;;;;;;;;5057902;28;20293;-89
2023/04/24 12:00:24;;;;;;;6.77;5.23;;;;;;;;;;5059870;28;20217;-88
2023/04/24 12:02:51;;;;;;;5.77;5.07;;;;;;;;;;5071415;28;20220;-89
2023/04/24 12:05:20;;;;;;;5.20;4.70;;;;;;;;;;5059639;28;20595;-89
2023/04/24 12:07:51;;;;;;;5.30;4.80;;;;;;;;;;5052578;28;20259;-88
2023/04/24 12:10:23;;;;;;;5.63;5.13;;;;;;;;;;5039529;28;20715;-89
2023/04/24 12:12:51;;;;;;;5.77;5.27;;;;;;;;;;5063806;28;20213;-90
2023/04/24 12:15:19;;;;;;;22.07;19.67;;;;;;;;;;5054216;28;20661;-88
2023/04/24 12:17:46;;;;;;;82.33;51.07;;;;;;;;;;5062611;28;20685;-88
2023/04/24 12:20:13;;;;;;;31.17;26.90;;;;;;;;;;5041602;28;20673;-89
2023/04/24 12:22:47;;;;;;;8.53;7.57;;;;;;;;;;5062606;28;20223;-88
2023/04/24 12:25:15;;;;;;;8.50;6.90;;;;;;;;;;5069154;28;20739;-89
2023/04/24 12:27:44;;;;;;;6.70;6.00;;;;;;;;;;5061308;28;20736;-89
2023/04/24 12:30:13;;;;;;;15.53;11.60;;;;;;;;;;5069566;28;20237;-89
2023/04/24 12:32:45;;;;;;;7.63;6.57;;;;;;;;;;5072381;28;20206;-89
2023/04/24 12:35:12;;;;;;;17.67;14.20;;;;;;;;;;5071940;28;20643;-89
2023/04/24 12:37:39;;;;;;;11.23;6.83;;;;;;;;;;5072057;28;20211;-89
2023/04/24 12:40:09;;;;;;;8.77;5.93;;;;;;;;;;5066026;28;20213;-89
2023/04/24 12:42:43;;;;;;;6.63;6.03;;;;;;;;;;5052160;28;20209;-90
2023/04/24 12:45:12;;;;;;;8.07;7.37;;;;;;;;;;5051819;28;20207;-90
2023/04/24 12:47:47;;;;;;;8.43;7.43;;;;;;;;;;5065448;28;20215;-89
2023/04/24 12:50:15;;;;;;;5.87;5.37;;;;;;;;;;5052168;28;20231;-90
2023/04/24 12:52:45;;;;;;;5.10;4.70;;;;;;;;;;5068258;28;20215;-89
2023/04/24 12:55:12;;;;;;;5.33;4.83;;;;;;;;;;5062373;28;20212;-89
2023/04/24 12:57:40;;;;;;;8.73;5.90;;;;;;;;;;5068538;28;20216;-89
2023/04/24 13:00:12;;;;;;;6.57;5.97;;;;;;;;;;5064249;28;20208;-89
2023/04/24 13:02:39;;;;;;;5.53;4.70;;;;;;;;;;5073709;28;20740;-91
2023/04/24 13:05:07;;;;;;;6.87;6.10;;;;;;;;;;5075857;28;20218;-89
2023/04/24 13:07:34;;;;;;;8.20;7.10;;;;;;;;;;5062063;28;20620;-90
2023/04/24 13:10:00;;;;;;;7.17;6.43;;;;;;;;;;5063340;28;20229;-89
2023/04/24 13:12:29;;;;;;;7.83;6.80;;;;;;;;;;5060611;28;20216;-89
2023/04/24 13:14:55;;;;;;;6.43;5.07;;;;;;;;;;5063500;28;20733;-89
2023/04/24 13:17:24;;;;;;;7.07;6.37;;;;;;;;;;5075027;28;20611;-89
2023/04/24 13:19:52;;;;;;;8.07;5.47;;;;;;;;;;5075837;28;20393;-92
2023/04/24 13:22:19;;;;;;;5.23;4.83;;;;;;;;;;5049329;28;20299;-89
2023/04/24 13:24:48;;;;;;;11.37;8.37;;;;;;;;;;5062037;28;20317;-89
2023/04/24 13:27:15;;;;;;;7.13;6.53;;;;;;;;;;5068047;28;20214;-89
2023/04/24 13:29:42;;;;;;;9.17;7.80;;;;;;;;;;5055297;28;20229;-89
2023/04/24 13:32:10;;;;;;;5.67;5.17;;;;;;;;;;5063085;28;20274;-89
2023/04/24 13:34:38;;;;;;;11.40;10.27;;;;;;;;;;5073900;28;20699;-89
2023/04/24 13:37:05;;;;;;;9.43;8.43;;;;;;;;;;5055438;28;20680;-89
2023/04/24 13:39:32;;;;;;;12.43;9.47;;;;;;;;;;5070454;28;20212;-88
2023/04/24 13:41:59;;;;;;;9.87;6.87;;;;;;;;;;5067072;28;20290;-90
2023/04/24 13:44:26;;;;;;;12.10;10.63;;;;;;;;;;5057082;28;20210;-90
2023/04/24 13:46:56;;;;;;;10.50;8.10;;;;;;;;;;5075148;28;20204;-89
2023/04/24 13:49:24;;;;;;;9.70;8.73;;;;;;;;;;5056442;28;20236;-90
2023/04/24 13:51:53;;;;;;;8.90;7.20;;;;;;;;;;5035211;28;20213;-89
2023/04/24 13:54:20;;;;;;;7.03;5.03;;;;;;;;;;5035718;28;20651;-89
2023/04/24 13:56:47;;;;;;;6.10;5.50;;;;;;;;;;5035004;28;20207;-91
2023/04/24 13:59:14;;;;;;;6.53;5.63;;;;;;;;;;5035357;28;20214;-89
2023/04/24 14:01:41;;;;;;;7.37;6.67;;;;;;;;;;5036076;28;20207;-89
2023/04/24 14:07:31;;;;;;;6.97;6.03;;;;;;;;;;5035375;28;20201;-90
2023/04/24 14:09:58;;;;;;;9.43;4.93;;;;;;;;;;5035080;28;20218;-89
2023/04/24 14:12:25;;;;;;;5.10;4.70;;;;;;;;;;5044903;28;20204;-90
2023/04/24 14:14:53;;;;;;;5.47;5.03;;;;;;;;;;5075228;28;20208;-90
2023/04/24 14:17:21;;;;;;;8.43;6.83;;;;;;;;;;5074880;28;20283;-90
2023/04/24 14:23:11;;;;;;;9.97;8.90;;;;;;;;;;5074354;28;20177;-87
2023/04/24 14:25:38;;;;;;;9.63;7.00;;;;;;;;;;5060369;28;20233;-89
2023/04/24 14:28:14;;;;;;;5.07;4.57;;;;;;;;;;5075222;28;20213;-90
2023/04/24 14:30:54;;;;;;;7.97;7.17;;;;;;;;;;5047912;28;20225;-90
2023/04/24 14:33:21;;;;;;;10.67;7.27;;;;;;;;;;5053817;28;20229;-95
2023/04/24 14:35:49;;;;;;;6.77;6.07;;;;;;;;;;5045713;28;20210;-87
2023/04/24 14:38:17;;;;;;;6.67;4.03;;;;;;;;;;5040848;28;20213;-88
2023/04/24 14:40:45;;;;;;;3.97;3.67;;;;;;;;;;5069695;28;20634;-87
2023/04/24 14:43:12;;;;;;;5.07;4.50;;;;;;;;;;5052745;28;20202;-93
2023/04/24 14:45:40;;;;;;;5.20;4.70;;;;;;;;;;5052905;28;20213;-90
2023/04/24 14:48:11;;;;;;;10.70;6.53;;;;;;;;;;5046530;28;20593;-87
2023/04/24 14:50:41;;;;;;;6.20;4.70;;;;;;;;;;5070427;28;20232;-88